Time;durP1;ratioP1;P1;durP2;ratioP2;P2;SDS_P1;SDS_P2;PMS_P1;PMS_P2;Temp;Humidity;BMP_temperature;BMP_pressure;BME280_temperature;BME280_humidity;BME280_pressure;Samples;Min_cycle;Max_cycle;Signal;HPM_P1;HPM_P2
2021/06/17 00:02:14;;;;;;;1.40;1.30;;;23.40;58.80;;;;;;5095879;28;20027;-76
2021/06/17 00:04:39;;;;;;;2.08;1.40;;;23.50;58.90;;;;;;5114074;28;20020;-78
2021/06/17 00:07:05;;;;;;;1.27;1.20;;;23.40;58.90;;;;;;5112863;28;20030;-76
2021/06/17 00:09:31;;;;;;;1.45;1.35;;;23.40;59.00;;;;;;5113844;28;20494;-76
2021/06/17 00:12:00;;;;;;;1.30;1.20;;;23.40;59.00;;;;;;5113837;28;20039;-77
2021/06/17 00:14:30;;;;;;;1.35;1.25;;;23.40;59.00;;;;;;5095531;28;20076;-75
2021/06/17 00:17:00;;;;;;;1.80;1.60;;;23.40;59.00;;;;;;5113701;28;20027;-76
2021/06/17 00:19:27;;;;;;;1.35;1.25;;;23.40;59.10;;;;;;5113650;28;20027;-78
2021/06/17 00:21:55;;;;;;;1.55;1.45;;;23.40;59.10;;;;;;5113109;28;20059;-76
2021/06/17 00:24:21;;;;;;;1.40;1.30;;;23.40;59.10;;;;;;5113705;28;20130;-77
2021/06/17 00:26:49;;;;;;;1.48;1.38;;;23.40;59.10;;;;;;5113582;28;20508;-77
2021/06/17 00:29:15;;;;;;;1.60;1.50;;;23.30;59.10;;;;;;5113612;28;20008;-76
2021/06/17 00:31:41;;;;;;;1.50;1.40;;;23.30;59.20;;;;;;5113539;28;20039;-77
2021/06/17 00:34:10;;;;;;;1.45;1.17;;;23.40;59.30;;;;;;5095208;28;20019;-76
2021/06/17 00:36:36;;;;;;;;;;;23.30;59.30;;;;;;5113464;28;20106;-78
2021/06/17 00:39:04;;;;;;;1.30;1.20;;;23.20;59.20;;;;;;5113512;28;19904;-77
2021/06/17 00:41:30;;;;;;;1.38;1.27;;;23.20;59.40;;;;;;5113261;28;20028;-77
2021/06/17 00:43:55;;;;;;;1.55;1.45;;;23.20;59.50;;;;;;5113782;28;20418;-77
2021/06/17 00:46:21;;;;;;;1.40;1.30;;;23.20;59.50;;;;;;5113541;28;20106;-77
2021/06/17 00:48:46;;;;;;;1.33;1.23;;;23.30;59.50;;;;;;5095167;28;20545;-77
2021/06/17 00:51:12;;;;;;;1.15;1.05;;;23.20;59.40;;;;;;5113003;28;20035;-78
2021/06/17 00:53:37;;;;;;;2.15;1.65;;;23.20;59.50;;;;;;5113224;28;20023;-77
2021/06/17 00:56:03;;;;;;;1.58;1.48;;;23.20;59.60;;;;;;5113380;28;20530;-77
2021/06/17 00:58:29;;;;;;;1.45;1.35;;;23.20;59.60;;;;;;5113342;28;20059;-76
2021/06/17 01:00:55;;;;;;;1.67;1.58;;;23.20;59.70;;;;;;5113232;28;20032;-77
2021/06/17 01:03:21;;;;;;;1.40;1.30;;;23.20;59.80;;;;;;5113561;28;20034;-76
2021/06/17 01:05:47;;;;;;;1.45;1.35;;;23.10;59.90;;;;;;5112903;28;20023;-76
2021/06/17 01:08:36;;;;;;;1.80;1.70;;;23.00;60.00;;;;;;5113142;28;20095;-78
2021/06/17 01:11:16;;;;;;;1.45;1.33;;;23.00;60.10;;;;;;5113233;28;20425;-78
2021/06/17 01:14:00;;;;;;;1.33;1.23;;;23.00;60.20;;;;;;5113399;28;20380;-78
2021/06/17 01:16:40;;;;;;;1.30;1.20;;;22.90;60.20;;;;;;5113289;28;20039;-76
2021/06/17 01:19:25;;;;;;;1.60;1.50;;;22.90;60.40;;;;;;5114465;28;20468;-77
2021/06/17 01:21:58;;;;;;;1.60;1.50;;;22.90;60.50;;;;;;5116729;28;20051;-76
2021/06/17 01:24:42;;;;;;;1.48;1.38;;;22.80;60.60;;;;;;5098709;28;20032;-75
2021/06/17 01:27:35;;;;;;;1.95;1.55;;;22.80;60.60;;;;;;5116964;28;20046;-77
2021/06/17 01:30:20;;;;;;;1.42;1.33;;;22.80;60.60;;;;;;5116913;28;20031;-77
2021/06/17 01:32:55;;;;;;;1.35;1.25;;;22.80;60.60;;;;;;5116911;28;20143;-77
2021/06/17 01:35:22;;;;;;;1.55;1.40;;;22.80;60.70;;;;;;5098041;28;20035;-78
2021/06/17 01:37:51;;;;;;;1.60;1.45;;;22.70;60.60;;;;;;5116649;28;20441;-77
2021/06/17 01:40:17;;;;;;;1.95;1.60;;;22.70;60.80;;;;;;5116771;28;20028;-76
2021/06/17 01:42:44;;;;;;;1.45;1.35;;;22.70;61.00;;;;;;5116733;28;20031;-77
2021/06/17 01:45:13;;;;;;;1.25;1.15;;;22.70;61.00;;;;;;5116471;28;20028;-76
2021/06/17 01:47:41;;;;;;;1.48;1.38;;;22.70;61.00;;;;;;5116659;28;20024;-77
2021/06/17 01:50:11;;;;;;;1.58;1.48;;;22.70;60.90;;;;;;5116029;28;20020;-77
2021/06/17 01:52:39;;;;;;;1.42;1.30;;;22.80;61.00;;;;;;5116524;28;20127;-77
2021/06/17 01:55:06;;;;;;;1.70;1.60;;;22.70;61.00;;;;;;5116455;28;20577;-77
2021/06/17 01:57:33;;;;;;;1.40;1.30;;;22.70;61.00;;;;;;5116308;28;20039;-77
2021/06/17 02:00:00;;;;;;;1.67;1.58;;;22.70;61.10;;;;;;5116288;28;20019;-76
2021/06/17 02:02:28;;;;;;;2.20;1.58;;;22.60;61.20;;;;;;5116162;28;20122;-78
2021/06/17 02:04:55;;;;;;;1.45;1.35;;;22.60;61.30;;;;;;5097477;28;20492;-78
2021/06/17 02:07:22;;;;;;;1.65;1.55;;;22.60;61.40;;;;;;5116214;28;20033;-76
2021/06/17 02:09:50;;;;;;;2.55;1.63;;;22.60;61.40;;;;;;5116190;28;20027;-78
2021/06/17 02:12:16;;;;;;;1.80;1.50;;;22.50;61.40;;;;;;5097839;28;20030;-75
2021/06/17 02:14:44;;;;;;;2.40;1.50;;;22.50;61.50;;;;;;5116065;28;20015;-78
2021/06/17 02:17:11;;;;;;;1.40;1.30;;;22.50;61.50;;;;;;5115955;28;20026;-78
2021/06/17 02:19:37;;;;;;;1.75;1.42;;;22.60;61.60;;;;;;5115458;28;20020;-76
2021/06/17 02:22:04;;;;;;;1.52;1.42;;;22.60;61.60;;;;;;5115686;28;20042;-77
2021/06/17 02:24:33;;;;;;;1.70;1.50;;;22.50;61.60;;;;;;5115991;28;20027;-77
2021/06/17 02:27:05;;;;;;;1.40;1.30;;;22.50;61.70;;;;;;5115637;28;20139;-77
2021/06/17 02:29:34;;;;;;;1.67;1.58;;;22.50;61.80;;;;;;5115269;28;20022;-75
2021/06/17 02:32:02;;;;;;;1.52;1.42;;;22.50;61.90;;;;;;5115200;28;20020;-77
2021/06/17 02:34:28;;;;;;;2.17;1.63;;;22.50;61.90;;;;;;5115779;28;20043;-76
2021/06/17 02:36:56;;;;;;;1.92;1.60;;;22.40;62.00;;;;;;5097161;28;20432;-76
2021/06/17 02:39:24;;;;;;;1.48;1.38;;;22.40;62.00;;;;;;5097124;28;20031;-76
2021/06/17 02:41:55;;;;;;;1.80;1.70;;;22.40;62.00;;;;;;5115444;28;20050;-76
2021/06/17 02:44:25;;;;;;;1.35;1.25;;;22.40;62.10;;;;;;5115298;28;20069;-77
2021/06/17 02:46:52;;;;;;;1.80;1.55;;;22.40;62.20;;;;;;5096586;28;20031;-77
2021/06/17 02:49:19;;;;;;;2.05;1.77;;;22.40;62.20;;;;;;5115299;28;20484;-76
2021/06/17 02:51:45;;;;;;;1.83;1.73;;;22.40;62.30;;;;;;5115325;28;20076;-77
2021/06/17 02:54:11;;;;;;;1.85;1.75;;;22.40;62.40;;;;;;5115200;28;20015;-77
2021/06/17 02:56:42;;;;;;;1.63;1.52;;;22.30;62.40;;;;;;5115289;28;20026;-76
2021/06/17 02:59:26;;;;;;;1.50;1.40;;;22.30;62.60;;;;;;5096874;28;20023;-77
2021/06/17 03:02:12;;;;;;;2.22;2.03;;;22.30;62.60;;;;;;5114557;28;20088;-77
2021/06/17 03:04:47;;;;;;;2.42;1.70;;;22.30;62.60;;;;;;5115038;28;20132;-75
2021/06/17 03:07:21;;;;;;;1.85;1.67;;;22.30;62.70;;;;;;5114972;28;20123;-76
2021/06/17 03:09:53;;;;;;;1.50;1.40;;;22.20;62.70;;;;;;5115087;28;20020;-78
2021/06/17 03:12:22;;;;;;;1.70;1.60;;;22.20;62.80;;;;;;5114940;28;20076;-75
2021/06/17 03:14:50;;;;;;;3.13;1.83;;;22.20;62.80;;;;;;5114847;28;20016;-77
2021/06/17 03:17:19;;;;;;;2.17;1.73;;;22.20;62.90;;;;;;5114348;28;20378;-77
2021/06/17 03:19:49;;;;;;;1.87;1.77;;;22.20;63.00;;;;;;5114752;28;20019;-76
2021/06/17 03:22:15;;;;;;;1.88;1.65;;;22.10;63.00;;;;;;5114493;28;20294;-77
2021/06/17 03:24:43;;;;;;;2.20;2.00;;;22.20;63.10;;;;;;5114713;28;20041;-76
2021/06/17 03:27:10;;;;;;;2.73;2.00;;;22.20;63.20;;;;;;5114535;28;20056;-76
2021/06/17 03:29:40;;;;;;;1.75;1.48;;;22.20;63.20;;;;;;5114650;28;20033;-77
2021/06/17 03:32:07;;;;;;;1.60;1.50;;;22.30;63.10;;;;;;5113941;28;20471;-77
2021/06/17 03:34:35;;;;;;;1.98;1.77;;;22.30;63.00;;;;;;5114583;28;20072;-77
2021/06/17 03:37:01;;;;;;;2.22;2.03;;;22.40;63.00;;;;;;5096183;28;20380;-76
2021/06/17 03:39:28;;;;;;;2.30;2.10;;;22.40;63.00;;;;;;5114418;28;20023;-76
2021/06/17 03:41:55;;;;;;;2.03;1.52;;;22.40;63.00;;;;;;5095290;28;20040;-76
2021/06/17 03:44:23;;;;;;;2.10;1.85;;;22.40;63.10;;;;;;5114012;28;20472;-77
2021/06/17 03:46:49;;;;;;;2.40;1.92;;;22.40;63.10;;;;;;5114275;28;20030;-76
2021/06/17 03:49:16;;;;;;;2.03;1.80;;;22.40;63.20;;;;;;5114217;28;20024;-77
2021/06/17 03:51:44;;;;;;;1.92;1.80;;;22.40;63.30;;;;;;5114336;28;20019;-76
2021/06/17 03:54:23;;;;;;;2.42;2.22;;;22.30;63.30;;;;;;5114044;28;20132;-76
2021/06/17 03:56:49;;;;;;;2.17;1.90;;;22.30;63.40;;;;;;5114286;28;20020;-77
2021/06/17 03:59:16;;;;;;;2.35;2.00;;;22.30;63.40;;;;;;5113649;28;20091;-76
2021/06/17 04:01:44;;;;;;;2.28;2.03;;;22.30;63.50;;;;;;5095739;28;20027;-78
2021/06/17 04:04:09;;;;;;;2.00;1.80;;;22.30;63.50;;;;;;5095856;28;20031;-78
2021/06/17 04:06:37;;;;;;;2.83;2.00;;;22.30;63.60;;;;;;5113876;28;20027;-76
2021/06/17 04:09:04;;;;;;;2.20;2.00;;;22.30;63.60;;;;;;5113842;28;20092;-77
2021/06/17 04:11:31;;;;;;;2.10;1.90;;;22.30;63.60;;;;;;5114001;28;20020;-77
2021/06/17 04:13:58;;;;;;;2.42;2.10;;;22.30;63.70;;;;;;5113358;28;20027;-78
2021/06/17 04:16:26;;;;;;;2.30;2.10;;;22.30;63.70;;;;;;5113817;28;20066;-76
2021/06/17 04:18:54;;;;;;;3.17;2.42;;;22.30;63.70;;;;;;5095595;28;20016;-77
2021/06/17 04:21:21;;;;;;;2.20;2.00;;;22.30;63.70;;;;;;5113316;28;20039;-77
2021/06/17 04:23:55;;;;;;;2.10;1.90;;;22.30;63.60;;;;;;5095539;28;20024;-76
2021/06/17 04:26:24;;;;;;;2.28;1.80;;;22.40;63.70;;;;;;5113695;28;20106;-78
2021/06/17 04:28:52;;;;;;;1.70;1.60;;;22.30;63.70;;;;;;5113838;28;20058;-78
2021/06/17 04:31:19;;;;;;;2.10;1.90;;;22.30;63.90;;;;;;5113684;28;20020;-77
2021/06/17 04:33:46;;;;;;;3.70;1.85;;;22.30;63.90;;;;;;5113630;28;20371;-77
2021/06/17 04:36:12;;;;;;;2.60;2.40;;;22.30;63.90;;;;;;5113825;28;20089;-78
2021/06/17 04:38:38;;;;;;;1.73;1.63;;;22.40;64.00;;;;;;5113560;28;20349;-77
2021/06/17 04:41:07;;;;;;;2.17;1.83;;;22.40;63.90;;;;;;5113478;28;20039;-77
2021/06/17 04:43:34;;;;;;;2.38;1.98;;;22.40;64.60;;;;;;5112944;28;20376;-77
2021/06/17 04:46:00;;;;;;;2.15;1.92;;;22.40;64.00;;;;;;5095229;28;20077;-76
2021/06/17 04:48:27;;;;;;;1.95;1.75;;;22.40;64.20;;;;;;5113452;28;20023;-76
2021/06/17 04:50:53;;;;;;;2.15;1.95;;;22.40;64.20;;;;;;5113516;28;20024;-77
2021/06/17 04:53:20;;;;;;;2.50;2.10;;;22.40;64.30;;;;;;5115121;28;20011;-76
2021/06/17 04:55:52;;;;;;;2.08;1.88;;;22.40;64.20;;;;;;5117619;28;20043;-77
2021/06/17 04:58:19;;;;;;;2.08;1.85;;;22.40;64.80;;;;;;5116988;28;20051;-76
2021/06/17 05:00:45;;;;;;;1.98;1.77;;;22.50;64.10;;;;;;5117421;28;20035;-77
2021/06/17 05:03:10;;;;;;;2.45;1.85;;;22.50;64.20;;;;;;5117551;28;20490;-76
2021/06/17 05:05:36;;;;;;;1.67;1.58;;;22.50;64.10;;;;;;5117272;28;20110;-77
2021/06/17 05:11:06;;;;;;;2.30;2.10;;;22.60;64.00;;;;;;5054517;28;20421;-77
2021/06/17 05:13:32;;;;;;;2.55;1.90;;;22.60;63.90;;;;;;5054038;28;20025;-78
2021/06/17 05:16:00;;;;;;;2.38;1.67;;;22.70;63.80;;;;;;5054337;28;20117;-78
2021/06/17 05:18:28;;;;;;;1.80;1.70;;;22.80;63.80;;;;;;5054340;28;20100;-76
2021/06/17 05:20:54;;;;;;;1.60;1.50;;;22.90;63.70;;;;;;5053941;28;20309;-75
2021/06/17 05:23:21;;;;;;;2.20;2.00;;;22.90;63.60;;;;;;5054325;28;20029;-76
2021/06/17 05:25:52;;;;;;;1.77;1.67;;;23.00;63.70;;;;;;5054360;28;20052;-76
2021/06/17 05:28:22;;;;;;;2.00;1.60;;;23.00;63.70;;;;;;5054249;28;20106;-77
2021/06/17 05:30:49;;;;;;;1.75;1.52;;;23.10;63.60;;;;;;5053994;28;20036;-74
2021/06/17 05:33:14;;;;;;;1.83;1.55;;;23.10;63.50;;;;;;5054032;28;20393;-76
2021/06/17 05:35:40;;;;;;;1.52;1.42;;;23.20;63.60;;;;;;5054060;28;20033;-77
2021/06/17 05:38:06;;;;;;;2.13;1.80;;;23.20;63.50;;;;;;5053933;28;20485;-75
2021/06/17 05:40:32;;;;;;;2.30;1.88;;;23.30;63.40;;;;;;5053355;28;20064;-78
2021/06/17 05:42:58;;;;;;;1.88;1.77;;;23.40;63.40;;;;;;5114796;28;20463;-75
2021/06/17 05:45:23;;;;;;;1.85;1.75;;;23.40;63.40;;;;;;5116743;28;20031;-77
2021/06/17 05:47:49;;;;;;;2.75;1.90;;;23.40;63.30;;;;;;5116703;28;20024;-77
2021/06/17 05:50:15;;;;;;;1.92;1.73;;;23.50;63.40;;;;;;5116663;28;20027;-75
2021/06/17 05:52:40;;;;;;;1.42;1.33;;;23.50;63.20;;;;;;5098303;28;20064;-76
2021/06/17 05:55:07;;;;;;;1.63;1.52;;;23.60;63.10;;;;;;5115987;28;20036;-76
2021/06/17 05:57:34;;;;;;;1.80;1.50;;;23.70;63.10;;;;;;5098044;28;20016;-74
2021/06/17 06:00:00;;;;;;;1.42;1.33;;;23.80;62.90;;;;;;5116469;28;20028;-77
2021/06/17 06:02:25;;;;;;;1.25;1.17;;;23.80;62.90;;;;;;5116228;28;20160;-74
2021/06/17 06:04:52;;;;;;;1.25;1.17;;;23.80;62.90;;;;;;5115420;28;20101;-75
2021/06/17 06:07:18;;;;;;;1.20;1.10;;;24.00;62.90;;;;;;5116380;28;20019;-74
2021/06/17 06:09:44;;;;;;;2.75;1.50;;;24.00;62.80;;;;;;5115812;28;20492;-77
2021/06/17 06:12:10;;;;;;;1.33;1.23;;;24.10;62.80;;;;;;5116573;28;20049;-75
2021/06/17 06:14:36;;;;;;;1.48;1.15;;;24.20;62.70;;;;;;5117885;28;20016;-74
2021/06/17 06:17:03;;;;;;;1.30;1.20;;;24.30;62.70;;;;;;5098432;28;20027;-76
2021/06/17 06:19:30;;;;;;;2.58;1.35;;;24.30;62.60;;;;;;5115844;28;20114;-75
2021/06/17 06:21:56;;;;;;;1.35;1.08;;;24.40;62.50;;;;;;5115674;28;20039;-75
2021/06/17 06:24:21;;;;;;;1.80;1.70;;;24.50;62.40;;;;;;5115493;28;20103;-76
2021/06/17 06:26:47;;;;;;;1.17;1.08;;;24.50;62.40;;;;;;5115840;28;20024;-76
2021/06/17 06:29:12;;;;;;;1.50;1.40;;;24.60;62.30;;;;;;5097426;28;20472;-76
2021/06/17 06:31:39;;;;;;;1.75;1.55;;;24.70;62.20;;;;;;5115908;28;20092;-75
2021/06/17 06:34:04;;;;;;;1.35;1.17;;;24.70;62.10;;;;;;5115961;28;20023;-74
2021/06/17 06:36:30;;;;;;;1.77;1.50;;;24.80;62.20;;;;;;5097342;28;20110;-75
2021/06/17 06:38:55;;;;;;;1.27;1.17;;;24.90;62.10;;;;;;5115110;28;20379;-76
2021/06/17 06:41:21;;;;;;;1.83;1.73;;;25.00;62.00;;;;;;5115412;28;20035;-74
2021/06/17 06:43:46;;;;;;;1.20;1.13;;;25.00;62.00;;;;;;5115394;28;20031;-75
2021/06/17 06:46:12;;;;;;;1.50;1.30;;;25.10;62.00;;;;;;5115442;28;20035;-76
2021/06/17 06:48:37;;;;;;;1.50;1.40;;;25.10;61.90;;;;;;5115968;28;20020;-74
2021/06/17 06:51:03;;;;;;;1.88;1.10;;;25.20;61.90;;;;;;5115308;28;20637;-76
2021/06/17 06:53:29;;;;;;;1.30;1.20;;;25.30;61.70;;;;;;5114788;28;20015;-77
2021/06/17 06:55:54;;;;;;;1.33;1.23;;;25.50;61.60;;;;;;5115238;28;20391;-75
2021/06/17 06:58:20;;;;;;;1.25;1.17;;;25.60;61.50;;;;;;5115146;28;20023;-74
2021/06/17 07:00:45;;;;;;;1.70;1.20;;;25.80;61.30;;;;;;5115002;28;20511;-75
2021/06/17 07:03:12;;;;;;;1.25;1.15;;;26.00;61.10;;;;;;5096833;28;20491;-75
2021/06/17 07:05:38;;;;;;;1.30;1.20;;;26.20;60.90;;;;;;5115163;28;20099;-76
2021/06/17 07:08:09;;;;;;;1.20;1.10;;;26.30;60.70;;;;;;5114454;28;20195;-76
2021/06/17 07:10:35;;;;;;;1.20;1.10;;;26.50;60.70;;;;;;5115105;28;20400;-75
2021/06/17 07:13:00;;;;;;;1.65;1.33;;;26.60;60.60;;;;;;5096590;28;20046;-75
2021/06/17 07:15:26;;;;;;;1.30;1.20;;;26.70;60.60;;;;;;5096687;28;20484;-75
2021/06/17 07:17:51;;;;;;;1.13;1.02;;;26.70;60.60;;;;;;5114919;28;20016;-77
2021/06/17 07:20:17;;;;;;;1.20;1.10;;;26.70;60.70;;;;;;5114716;28;20012;-75
2021/06/17 07:22:42;;;;;;;1.45;1.30;;;26.70;61.00;;;;;;5114095;28;20404;-76
2021/06/17 07:25:09;;;;;;;1.40;1.02;;;26.70;61.10;;;;;;5096450;28;20023;-75
2021/06/17 07:27:34;;;;;;;1.30;1.20;;;26.70;61.10;;;;;;5096422;28;20361;-76
2021/06/17 07:30:00;;;;;;;1.15;1.10;;;26.80;61.10;;;;;;5114655;28;20487;-76
2021/06/17 07:32:26;;;;;;;1.48;1.25;;;26.90;61.10;;;;;;5114566;28;20566;-75
2021/06/17 07:34:51;;;;;;;1.13;1.10;;;26.80;61.10;;;;;;5114593;28;20056;-76
2021/06/17 07:37:17;;;;;;;1.13;1.13;;;26.80;61.20;;;;;;5114102;28;20020;-75
2021/06/17 07:39:43;;;;;;;1.30;1.20;;;26.70;61.20;;;;;;5114435;28;20027;-76
2021/06/17 07:42:10;;;;;;;1.20;1.10;;;26.70;61.30;;;;;;5114204;28;20076;-76
2021/06/17 07:44:36;;;;;;;1.23;1.10;;;26.70;61.40;;;;;;5114303;28;20111;-75
2021/06/17 07:47:01;;;;;;;1.15;1.10;;;26.80;61.20;;;;;;5114253;28;20055;-75
2021/06/17 07:49:27;;;;;;;1.10;1.00;;;26.80;61.10;;;;;;5114405;28;20054;-76
2021/06/17 07:51:53;;;;;;;1.30;1.20;;;26.90;61.10;;;;;;5113908;28;20028;-77
2021/06/17 07:54:18;;;;;;;1.10;1.10;;;26.90;60.90;;;;;;5114061;28;20500;-77
2021/06/17 07:56:45;;;;;;;1.25;1.25;;;26.90;61.00;;;;;;5114261;28;20034;-75
2021/06/17 07:59:10;;;;;;;1.70;1.35;;;26.90;61.00;;;;;;5095829;28;20096;-77
2021/06/17 08:01:36;;;;;;;0.82;0.82;;;26.90;61.00;;;;;;5113895;28;20059;-78
2021/06/17 08:04:06;;;;;;;1.10;1.10;;;26.90;61.00;;;;;;5114023;28;20031;-76
2021/06/17 08:06:32;;;;;;;2.13;1.20;;;26.90;61.00;;;;;;5113558;28;20027;-77
2021/06/17 08:09:00;;;;;;;1.38;1.00;;;26.90;61.00;;;;;;5113866;28;20022;-78
2021/06/17 08:11:25;;;;;;;1.15;1.13;;;26.90;60.90;;;;;;5113807;28;20019;-77
2021/06/17 08:13:51;;;;;;;0.85;0.85;;;27.00;60.80;;;;;;5095442;28;20020;-81
2021/06/17 08:16:16;;;;;;;1.23;1.13;;;27.00;60.60;;;;;;5113621;28;20023;-79
2021/06/17 08:18:42;;;;;;;1.58;1.20;;;27.10;60.50;;;;;;5113775;28;20049;-81
2021/06/17 08:21:07;;;;;;;1.10;1.00;;;27.20;60.20;;;;;;5112885;28;20105;-76
2021/06/17 08:23:33;;;;;;;1.45;1.33;;;27.30;60.10;;;;;;5113745;28;20214;-78
2021/06/17 08:25:59;;;;;;;1.63;1.15;;;27.40;60.00;;;;;;5107314;28;20023;-76
2021/06/17 08:28:26;;;;;;;1.65;1.50;;;27.40;59.80;;;;;;5112098;28;20020;-77
2021/06/17 08:30:53;;;;;;;1.30;1.20;;;27.50;59.70;;;;;;5112529;28;20080;-80
2021/06/17 08:33:18;;;;;;;1.45;1.20;;;27.60;59.50;;;;;;5113628;28;20376;-78
2021/06/17 08:35:44;;;;;;;1.30;1.20;;;27.70;59.30;;;;;;5113112;28;20506;-76
2021/06/17 08:38:09;;;;;;;1.63;1.52;;;27.80;59.10;;;;;;5113573;28;20026;-78
2021/06/17 08:40:35;;;;;;;1.38;1.27;;;27.90;59.00;;;;;;5113344;28;20386;-77
2021/06/17 08:43:03;;;;;;;1.20;1.10;;;27.90;59.10;;;;;;5113572;28;20008;-79
2021/06/17 08:45:28;;;;;;;1.40;1.30;;;27.90;59.10;;;;;;5113484;28;20020;-78
2021/06/17 08:47:55;;;;;;;1.20;1.10;;;27.90;59.00;;;;;;5113383;28;20080;-77
2021/06/17 08:50:21;;;;;;;1.38;1.27;;;28.00;58.90;;;;;;5112867;28;20030;-77
2021/06/17 08:52:46;;;;;;;0.80;0.80;;;28.10;58.80;;;;;;5113543;28;20024;-78
2021/06/17 08:55:25;;;;;;;1.33;1.23;;;28.10;58.70;;;;;;5113425;28;20104;-77
2021/06/17 08:57:53;;;;;;;1.25;1.10;;;28.30;58.50;;;;;;5113332;28;20020;-77
2021/06/17 09:00:22;;;;;;;1.08;1.08;;;28.40;58.30;;;;;;5095181;28;20023;-78
2021/06/17 09:03:01;;;;;;;1.20;1.10;;;28.50;58.00;;;;;;5113325;28;20098;-78
2021/06/17 09:05:27;;;;;;;1.15;1.10;;;28.50;57.90;;;;;;5112821;28;20504;-79
2021/06/17 09:07:53;;;;;;;1.60;1.30;;;28.50;58.00;;;;;;5113356;28;20026;-77
2021/06/17 09:10:20;;;;;;;1.15;1.05;;;28.60;58.00;;;;;;5113669;28;20020;-79
2021/06/17 09:12:48;;;;;;;0.75;0.75;;;28.60;57.90;;;;;;5114334;28;20076;-78
2021/06/17 09:15:14;;;;;;;1.30;1.20;;;28.70;57.90;;;;;;5113322;28;20027;-80
2021/06/17 09:17:40;;;;;;;1.48;1.30;;;28.70;57.70;;;;;;5113107;28;20016;-78
2021/06/17 09:20:08;;;;;;;1.20;1.10;;;28.80;57.70;;;;;;5112681;28;20513;-78
2021/06/17 09:22:35;;;;;;;0.88;0.82;;;28.80;57.60;;;;;;5113108;28;20104;-78
2021/06/17 09:25:01;;;;;;;1.13;1.02;;;28.80;57.60;;;;;;5113339;28;20015;-79
2021/06/17 09:27:31;;;;;;;1.48;0.90;;;28.90;57.50;;;;;;5113133;28;20019;-78
2021/06/17 09:30:10;;;;;;;0.75;0.75;;;28.90;57.40;;;;;;5094854;28;20107;-81
2021/06/17 09:32:36;;;;;;;0.80;0.80;;;28.90;57.40;;;;;;5112623;28;20020;-80
2021/06/17 09:35:17;;;;;;;1.13;1.00;;;29.00;57.30;;;;;;5113079;28;20023;-79
2021/06/17 09:37:42;;;;;;;0.73;0.73;;;29.10;57.20;;;;;;5113234;28;20460;-77
2021/06/17 09:40:21;;;;;;;1.10;1.00;;;29.20;57.00;;;;;;5114043;28;20031;-78
2021/06/17 09:42:48;;;;;;;1.27;0.80;;;29.40;56.90;;;;;;5116700;28;20076;-79
2021/06/17 09:45:19;;;;;;;0.73;0.73;;;29.40;56.80;;;;;;5116665;28;20012;-78
2021/06/17 09:47:45;;;;;;;1.08;0.98;;;29.60;56.70;;;;;;5116188;28;20063;-79
2021/06/17 09:50:25;;;;;;;0.63;0.63;;;29.60;56.60;;;;;;5116563;28;20015;-77
2021/06/17 09:52:52;;;;;;;0.95;0.95;;;29.80;56.60;;;;;;5116583;28;20102;-78
2021/06/17 09:55:37;;;;;;;0.80;0.80;;;29.80;56.60;;;;;;5098278;28;20069;-78
2021/06/17 09:58:04;;;;;;;0.95;0.93;;;29.90;56.50;;;;;;5116657;28;20034;-79
2021/06/17 10:00:30;;;;;;;0.60;0.60;;;29.90;56.50;;;;;;5116298;28;20082;-77
2021/06/17 10:02:56;;;;;;;0.65;0.65;;;30.00;56.50;;;;;;5097495;28;20471;-79
2021/06/17 10:05:27;;;;;;;0.82;0.80;;;30.10;56.40;;;;;;5116403;28;20062;-75
2021/06/17 10:07:52;;;;;;;0.70;0.70;;;30.20;56.40;;;;;;5116392;28;20023;-76
2021/06/17 10:10:22;;;;;;;1.20;1.10;;;30.30;56.40;;;;;;5116127;28;20039;-77
2021/06/17 10:12:48;;;;;;;0.68;0.68;;;30.40;56.30;;;;;;5097841;28;20023;-77
2021/06/17 10:15:14;;;;;;;0.80;0.80;;;30.50;56.30;;;;;;5116014;28;20515;-76
2021/06/17 10:17:40;;;;;;;0.80;0.80;;;30.50;56.10;;;;;;5097643;28;20024;-77
2021/06/17 10:20:08;;;;;;;0.75;0.75;;;30.70;56.00;;;;;;5116159;28;20020;-77
2021/06/17 10:22:37;;;;;;;0.95;0.65;;;30.90;55.80;;;;;;5097517;28;20046;-77
2021/06/17 10:25:03;;;;;;;;;;;31.00;55.60;;;;;;5116318;28;20088;-78
2021/06/17 10:27:46;;;;;;;0.60;0.60;;;31.10;55.60;;;;;;5115871;28;20010;-77
2021/06/17 10:30:14;;;;;;;0.55;0.55;;;31.40;55.50;;;;;;5115843;28;20375;-79
2021/06/17 10:32:43;;;;;;;;;;;31.40;55.30;;;;;;5097414;28;20027;-75
2021/06/17 10:35:09;;;;;;;0.70;0.70;;;31.50;55.40;;;;;;5115637;28;19949;-74
2021/06/17 10:37:49;;;;;;;0.57;0.57;;;31.60;55.40;;;;;;5097374;28;20027;-75
2021/06/17 10:40:14;;;;;;;0.82;0.80;;;31.70;55.30;;;;;;5115563;28;20502;-76
2021/06/17 10:42:47;;;;;;;0.90;0.88;;;31.80;55.30;;;;;;5115594;28;20023;-75
2021/06/17 10:45:31;;;;;;;1.10;1.00;;;31.90;55.10;;;;;;5096855;28;20024;-76
2021/06/17 10:47:59;;;;;;;0.90;0.90;;;32.00;55.10;;;;;;5115485;28;20031;-76
2021/06/17 10:50:37;;;;;;;0.80;0.80;;;32.10;55.00;;;;;;5115240;28;20164;-80
2021/06/17 10:53:15;;;;;;;0.60;0.50;;;32.20;55.00;;;;;;5115402;28;20034;-76
2021/06/17 10:55:51;;;;;;;1.00;1.00;;;32.30;54.90;;;;;;5115400;28;20024;-76
2021/06/17 10:58:16;;;;;;;0.80;0.80;;;32.50;54.90;;;;;;5115319;28;20028;-81
2021/06/17 11:00:48;;;;;;;0.90;0.90;;;32.60;54.70;;;;;;5114735;28;20032;-83
2021/06/17 11:03:14;;;;;;;0.80;0.80;;;32.80;54.60;;;;;;5115289;28;20546;-82
2021/06/17 11:05:40;;;;;;;0.77;0.77;;;32.60;54.80;;;;;;5115219;28;20024;-80
2021/06/17 11:08:26;;;;;;;1.30;1.08;;;32.70;54.80;;;;;;5115001;28;20029;-81
2021/06/17 11:11:00;;;;;;;1.35;1.25;;;32.90;54.50;;;;;;5096772;28;20065;-80
2021/06/17 11:13:36;;;;;;;0.88;0.88;;;32.90;54.50;;;;;;5096626;28;20027;-82
2021/06/17 11:16:22;;;;;;;1.20;1.10;;;33.00;54.40;;;;;;5114464;28;20019;-80
2021/06/17 11:18:49;;;;;;;1.10;1.00;;;33.30;54.40;;;;;;5079162;28;20351;-81
2021/06/17 11:21:21;;;;;;;1.00;1.00;;;33.40;54.20;;;;;;5114679;28;20048;-81
2021/06/17 11:23:47;;;;;;;1.40;1.30;;;34.10;53.60;;;;;;5112186;28;20024;-82
2021/06/17 11:26:39;;;;;;;1.38;1.27;;;34.70;52.80;;;;;;5093739;28;20367;-85
2021/06/17 11:29:06;;;;;;;0.93;0.93;;;35.40;52.10;;;;;;5111758;28;20149;-82
2021/06/17 11:31:40;;;;;;;1.42;1.33;;;35.70;51.50;;;;;;5112087;28;20183;-81
2021/06/17 11:34:14;;;;;;;1.75;1.27;;;36.10;51.10;;;;;;5111749;28;20019;-81
2021/06/17 11:36:50;;;;;;;1.30;1.20;;;36.40;51.00;;;;;;5111845;28;20057;-80
2021/06/17 11:39:23;;;;;;;1.40;1.30;;;36.70;50.70;;;;;;5111700;28;20028;-82
2021/06/17 11:41:49;;;;;;;0.95;0.95;;;37.10;50.40;;;;;;5093399;28;20048;-82
2021/06/17 11:44:24;;;;;;;1.63;1.52;;;37.20;50.20;;;;;;5092524;28;20054;-81
2021/06/17 11:47:22;;;;;;;1.50;1.40;;;37.50;49.90;;;;;;5111645;28;20020;-83
2021/06/17 11:49:48;;;;;;;1.30;1.20;;;37.60;49.60;;;;;;5054998;28;20043;-79
2021/06/17 11:52:16;;;;;;;1.48;1.38;;;37.50;49.50;;;;;;5111574;28;20062;-84
2021/06/17 11:54:42;;;;;;;;;;;37.50;49.10;;;;;;5112115;28;20364;-84
2021/06/17 11:57:08;;;;;;;1.65;1.55;;;37.10;49.80;;;;;;5111309;28;19908;-83
2021/06/17 11:59:36;;;;;;;1.25;1.15;;;37.10;49.80;;;;;;5110742;28;20031;-81
2021/06/17 12:02:23;;;;;;;1.10;1.10;;;37.30;49.60;;;;;;5109343;28;20035;-80
2021/06/17 12:05:06;;;;;;;1.33;1.23;;;37.20;49.50;;;;;;5111595;28;20024;-84
2021/06/17 12:07:37;;;;;;;1.70;1.60;;;37.10;49.30;;;;;;5112976;28;20024;-83
2021/06/17 12:10:14;;;;;;;1.30;1.30;;;36.90;49.40;;;;;;5114322;28;20069;-80
2021/06/17 12:12:52;;;;;;;1.20;1.20;;;36.90;49.30;;;;;;5113477;28;20472;-78
2021/06/17 12:15:19;;;;;;;;;;;36.40;49.70;;;;;;5114201;28;20379;-86
2021/06/17 12:17:59;;;;;;;1.65;1.55;;;35.90;50.60;;;;;;5113707;28;19960;-79
2021/06/17 12:20:28;;;;;;;1.20;1.20;;;35.70;50.50;;;;;;5095434;28;20034;-79
2021/06/17 12:22:56;;;;;;;1.20;1.20;;;35.20;50.60;;;;;;5113600;28;20040;-80
2021/06/17 12:25:23;;;;;;;0.93;0.93;;;34.70;50.90;;;;;;5095491;28;20048;-78
2021/06/17 12:27:52;;;;;;;0.88;0.88;;;34.30;51.20;;;;;;5113168;28;20039;-80
2021/06/17 12:30:46;;;;;;;1.20;1.10;;;34.00;51.20;;;;;;5113521;28;20503;-80
2021/06/17 12:33:26;;;;;;;1.17;1.05;;;34.30;50.80;;;;;;5095593;28;20030;-80
2021/06/17 12:35:56;;;;;;;1.00;1.00;;;34.80;50.20;;;;;;5113632;28;20097;-79
2021/06/17 12:38:28;;;;;;;0.98;0.82;;;35.20;50.00;;;;;;5113657;28;20023;-77
2021/06/17 12:40:54;;;;;;;1.10;1.00;;;35.50;48.80;;;;;;5112932;28;20028;-78
2021/06/17 12:43:25;;;;;;;0.93;0.93;;;35.80;48.40;;;;;;5113547;28;20487;-77
2021/06/17 12:46:03;;;;;;;1.50;1.13;;;35.70;48.30;;;;;;5113496;28;20081;-77
2021/06/17 12:52:08;;;;;;;0.88;0.82;;;34.60;49.30;;;;;;5081691;28;20030;-78
2021/06/17 12:54:51;;;;;;;0.88;0.88;;;34.70;49.30;;;;;;5113583;28;20022;-80
2021/06/17 12:57:20;;;;;;;0.98;0.90;;;35.10;48.60;;;;;;5094677;28;20348;-79
2021/06/17 12:59:48;;;;;;;1.15;1.05;;;35.20;48.10;;;;;;5113479;28;20024;-80
2021/06/17 13:02:34;;;;;;;0.70;0.70;;;35.40;47.90;;;;;;5113209;28;20118;-80
2021/06/17 13:05:14;;;;;;;0.88;0.88;;;35.70;47.60;;;;;;5095727;28;20035;-77